Time;durP1;ratioP1;P1;durP2;ratioP2;P2;SDS_P1;SDS_P2;PMS_P1;PMS_P2;Temp;Humidity;BMP_temperature;BMP_pressure;BME280_temperature;BME280_humidity;BME280_pressure;Samples;Min_cycle;Max_cycle;Signal;HPM_P1;HPM_P2
2022/01/17 00:00:18;;;;;;;5.28;1.00;;;7.30;99.90;;;;;;5074400;28;20028;-72
2022/01/17 00:02:47;;;;;;;9.75;1.17;;;7.30;99.90;;;;;;5075037;28;20037;-71
2022/01/17 00:05:16;;;;;;;10.10;1.55;;;7.20;99.90;;;;;;5076438;28;20120;-73
2022/01/17 00:07:42;;;;;;;15.35;1.20;;;7.20;99.90;;;;;;5076131;28;20060;-72
2022/01/17 00:10:08;;;;;;;9.38;1.25;;;7.10;99.90;;;;;;5081504;28;20028;-74
2022/01/17 00:12:38;;;;;;;13.15;1.40;;;7.10;99.90;;;;;;5076617;28;20036;-72
2022/01/17 00:15:15;;;;;;;8.45;1.30;;;7.10;99.90;;;;;;5073237;28;20472;-73
2022/01/17 00:17:43;;;;;;;11.43;1.27;;;7.20;99.90;;;;;;5074876;28;20048;-72
2022/01/17 00:20:15;;;;;;;7.90;1.30;;;7.20;99.90;;;;;;5074247;28;20024;-73
2022/01/17 00:22:40;;;;;;;5.82;0.85;;;7.20;99.90;;;;;;5075413;28;20028;-73
2022/01/17 00:25:07;;;;;;;6.82;1.17;;;7.20;99.90;;;;;;5075161;28;20483;-73
2022/01/17 00:27:33;;;;;;;13.55;1.30;;;7.30;99.90;;;;;;5075223;28;20469;-73
2022/01/17 00:30:02;;;;;;;9.63;1.88;;;7.30;99.90;;;;;;5075158;28;20028;-73
2022/01/17 00:32:27;;;;;;;17.98;3.58;;;7.30;99.90;;;;;;5074996;28;20027;-73
2022/01/17 00:34:53;;;;;;;13.52;2.40;;;7.30;99.90;;;;;;5074776;28;20024;-73
2022/01/17 00:37:18;;;;;;;13.32;1.77;;;7.20;99.90;;;;;;5074856;28;20487;-72
2022/01/17 00:39:44;;;;;;;13.88;1.63;;;7.20;99.90;;;;;;5075602;28;20020;-73
2022/01/17 00:42:09;;;;;;;11.60;1.60;;;7.20;99.90;;;;;;5073696;28;20033;-73
2022/01/17 00:44:35;;;;;;;14.73;2.95;;;7.10;99.90;;;;;;5074419;28;20017;-73
2022/01/17 00:47:01;;;;;;;12.93;1.88;;;7.10;99.90;;;;;;5074338;28;20029;-73
2022/01/17 00:49:26;;;;;;;17.70;3.10;;;7.00;99.90;;;;;;5073721;28;20025;-73
2022/01/17 00:51:55;;;;;;;9.77;1.52;;;6.90;99.90;;;;;;5075138;28;20599;-73
2022/01/17 00:54:21;;;;;;;7.70;1.77;;;6.70;99.90;;;;;;5074089;28;20048;-73
2022/01/17 00:56:46;;;;;;;8.70;1.85;;;6.60;99.90;;;;;;5074108;28;20127;-73
2022/01/17 00:59:12;;;;;;;14.00;1.42;;;6.60;99.90;;;;;;5073803;28;20074;-73
2022/01/17 01:01:37;;;;;;;14.95;1.85;;;6.50;99.90;;;;;;5073179;28;20047;-72
2022/01/17 01:04:03;;;;;;;20.00;2.45;;;6.40;99.90;;;;;;5074700;28;20024;-73
2022/01/17 01:06:30;;;;;;;7.70;2.13;;;6.20;99.90;;;;;;5074479;28;20408;-73
2022/01/17 01:08:56;;;;;;;6.43;2.10;;;6.10;99.90;;;;;;5073847;28;20099;-73
2022/01/17 01:11:22;;;;;;;10.02;1.75;;;6.00;99.90;;;;;;5074142;28;20035;-73
2022/01/17 01:13:47;;;;;;;15.10;2.75;;;5.90;99.90;;;;;;5074544;28;20107;-73
2022/01/17 01:29:30;;;;;;;8.25;2.05;;;5.20;99.90;;;;;;5073737;28;20553;-72
2022/01/17 01:32:02;;;;;;;7.05;1.17;;;5.10;99.90;;;;;;5074238;28;20021;-73
2022/01/17 01:34:38;;;;;;;9.43;2.15;;;5.00;99.90;;;;;;5074307;28;20452;-73
2022/01/17 01:37:04;;;;;;;10.55;1.30;;;5.00;99.90;;;;;;5073553;28;20067;-74
2022/01/17 01:39:30;;;;;;;12.20;1.90;;;4.90;99.90;;;;;;5074003;28;20028;-73
2022/01/17 01:41:56;;;;;;;8.88;2.10;;;4.80;99.90;;;;;;5073887;28;20491;-73
2022/01/17 01:44:23;;;;;;;17.48;2.60;;;4.80;99.90;;;;;;5072652;28;20025;-73
2022/01/17 01:46:51;;;;;;;9.15;2.67;;;6.20;99.90;;;;;;5073431;28;20028;-73
2022/01/17 01:49:17;;;;;;;9.63;1.70;;;5.00;99.90;;;;;;5073680;28;20108;-73
2022/01/17 01:51:44;;;;;;;9.68;2.13;;;5.20;99.90;;;;;;5073119;28;20499;-73
2022/01/17 01:54:16;;;;;;;7.63;1.95;;;5.20;99.90;;;;;;5073062;28;20086;-73
2022/01/17 01:56:44;;;;;;;12.25;1.40;;;5.20;99.90;;;;;;5075264;28;20085;-74
2022/01/17 01:59:12;;;;;;;8.77;1.45;;;5.30;99.90;;;;;;5090147;28;20062;-73
2022/01/17 02:01:37;;;;;;;13.52;1.65;;;5.30;99.90;;;;;;5094024;28;20031;-74
2022/01/17 02:04:04;;;;;;;8.88;1.20;;;5.30;99.90;;;;;;5095011;28;20046;-74
2022/01/17 02:06:32;;;;;;;9.35;1.40;;;5.30;99.90;;;;;;5094476;28;20052;-72
2022/01/17 02:08:58;;;;;;;3.90;0.95;;;5.30;99.90;;;;;;5093959;28;20051;-72
2022/01/17 02:11:24;;;;;;;8.85;2.10;;;5.20;99.90;;;;;;5095911;28;20032;-74
2022/01/17 02:13:50;;;;;;;9.38;1.48;;;5.10;99.90;;;;;;5093018;28;20024;-73
2022/01/17 02:16:16;;;;;;;9.95;1.85;;;5.00;99.90;;;;;;5093233;28;20063;-74
2022/01/17 02:18:44;;;;;;;10.48;1.30;;;5.00;99.90;;;;;;5094032;28;20020;-73
2022/01/17 02:23:44;;;;;;;8.50;1.52;;;5.10;99.90;;;;;;5093090;28;20028;-73
2022/01/17 02:26:10;;;;;;;5.38;1.20;;;5.10;99.90;;;;;;5092317;28;20024;-73
2022/01/17 02:28:37;;;;;;;7.95;1.10;;;5.10;99.90;;;;;;5093200;28;20028;-73
2022/01/17 02:31:06;;;;;;;8.50;1.70;;;5.10;99.90;;;;;;5093159;28;20095;-73
2022/01/17 02:33:33;;;;;;;6.10;1.40;;;5.00;99.90;;;;;;5092304;28;20051;-73
2022/01/17 02:36:01;;;;;;;13.52;2.03;;;4.90;99.90;;;;;;5093399;28;20036;-72
2022/01/17 02:38:27;;;;;;;11.25;1.40;;;4.80;99.90;;;;;;5093136;28;20035;-73
2022/01/17 02:40:53;;;;;;;18.52;1.60;;;4.70;99.90;;;;;;5092419;28;20140;-74
2022/01/17 02:43:21;;;;;;;7.28;1.27;;;4.80;99.90;;;;;;5092620;28;20100;-74
2022/01/17 02:48:17;;;;;;;12.57;1.50;;;4.80;99.90;;;;;;5092408;28;20052;-73
2022/01/17 02:50:42;;;;;;;3.17;1.08;;;4.90;99.90;;;;;;5093149;28;20078;-73
2022/01/17 02:53:09;;;;;;;14.30;1.20;;;4.90;99.90;;;;;;5085375;28;20024;-73
2022/01/17 02:55:35;;;;;;;5.68;1.20;;;4.90;99.90;;;;;;5072550;28;20035;-73
2022/01/17 02:58:01;;;;;;;10.57;1.95;;;4.90;99.90;;;;;;5072710;28;20384;-73
2022/01/17 03:00:27;;;;;;;8.48;1.27;;;4.90;99.90;;;;;;5072042;28;20024;-74
2022/01/17 03:02:53;;;;;;;12.07;1.48;;;4.70;99.90;;;;;;5072217;28;20024;-74
2022/01/17 03:05:20;;;;;;;12.18;1.50;;;4.70;99.90;;;;;;5071831;28;20551;-74
2022/01/17 03:07:47;;;;;;;2.97;0.95;;;4.70;99.90;;;;;;5072689;28;20032;-74
2022/01/17 03:10:28;;;;;;;9.93;1.13;;;4.60;99.90;;;;;;5071860;28;20028;-73
2022/01/17 03:13:09;;;;;;;16.80;1.58;;;4.70;99.90;;;;;;5072369;28;20039;-73
2022/01/17 03:15:35;;;;;;;8.43;1.48;;;4.70;99.90;;;;;;5071471;28;20025;-74
2022/01/17 03:18:02;;;;;;;12.80;1.98;;;4.80;99.90;;;;;;5071870;28;20037;-73
2022/01/17 03:20:28;;;;;;;14.75;1.73;;;4.90;99.90;;;;;;5072321;28;20073;-74
2022/01/17 03:22:54;;;;;;;15.50;1.73;;;4.90;99.90;;;;;;5070990;28;20088;-74
2022/01/17 03:25:19;;;;;;;14.30;1.55;;;4.90;99.90;;;;;;5071468;28;20028;-72
2022/01/17 03:27:45;;;;;;;11.88;1.73;;;4.80;99.90;;;;;;5071979;28;20071;-72
2022/01/17 03:30:11;;;;;;;10.70;2.72;;;4.70;99.90;;;;;;5070734;28;20029;-72
2022/01/17 03:32:36;;;;;;;13.98;1.63;;;4.80;99.90;;;;;;5074459;28;20103;-73
2022/01/17 03:35:02;;;;;;;10.50;1.45;;;4.90;99.90;;;;;;5076065;28;20032;-73
2022/01/17 03:37:28;;;;;;;17.50;3.45;;;4.90;99.90;;;;;;5075039;28;20029;-72
2022/01/17 03:39:56;;;;;;;13.30;2.05;;;4.90;99.90;;;;;;5075534;28;20028;-72
2022/01/17 03:42:24;;;;;;;11.70;2.55;;;4.80;99.90;;;;;;5075183;28;20024;-72
2022/01/17 03:44:50;;;;;;;14.40;2.20;;;4.90;99.90;;;;;;5074999;28;20472;-73
2022/01/17 03:47:15;;;;;;;14.57;2.22;;;4.90;99.90;;;;;;5075503;28;20147;-73
2022/01/17 03:49:41;;;;;;;16.08;2.45;;;4.90;99.90;;;;;;5075634;28;20107;-73
2022/01/17 03:52:06;;;;;;;13.05;2.60;;;4.90;99.90;;;;;;5074500;28;20043;-72
2022/01/17 03:54:33;;;;;;;12.57;2.08;;;4.80;99.90;;;;;;5076574;28;20020;-73
2022/01/17 03:56:59;;;;;;;14.88;2.90;;;4.80;99.90;;;;;;5084097;28;20040;-73
2022/01/17 03:59:25;;;;;;;15.82;2.30;;;4.70;99.90;;;;;;5074744;28;20031;-73
2022/01/17 04:01:54;;;;;;;12.43;2.80;;;4.70;99.90;;;;;;5075231;28;20074;-72
2022/01/17 04:04:20;;;;;;;7.85;2.45;;;4.70;99.90;;;;;;5075669;28;20438;-73
2022/01/17 04:06:45;;;;;;;19.65;3.40;;;4.70;99.90;;;;;;5080383;28;20061;-72
2022/01/17 04:09:11;;;;;;;24.67;3.95;;;4.70;99.90;;;;;;5075341;28;20024;-75
2022/01/17 04:11:38;;;;;;;22.80;3.15;;;4.90;99.90;;;;;;5082008;28;20048;-73
2022/01/17 04:14:06;;;;;;;17.73;3.70;;;4.80;99.90;;;;;;5075604;28;20120;-72
2022/01/17 04:16:32;;;;;;;13.18;2.95;;;4.70;99.90;;;;;;5074845;28;20043;-72
2022/01/17 04:18:58;;;;;;;14.70;3.42;;;4.70;99.90;;;;;;5074657;28;20021;-73
2022/01/17 04:21:30;;;;;;;16.80;3.05;;;4.70;99.90;;;;;;5075496;28;20029;-72
2022/01/17 04:23:56;;;;;;;10.75;2.78;;;4.70;99.90;;;;;;5075865;28;20459;-73
2022/01/17 04:26:24;;;;;;;17.95;3.65;;;4.50;99.90;;;;;;5074540;28;20028;-74
2022/01/17 04:28:50;;;;;;;10.50;3.08;;;4.50;99.90;;;;;;5074606;28;20094;-73
2022/01/17 04:31:15;;;;;;;18.00;3.88;;;4.50;99.90;;;;;;5074341;28;20483;-74
2022/01/17 04:33:41;;;;;;;10.65;3.03;;;4.40;99.90;;;;;;5074148;28;20017;-74
2022/01/17 04:36:10;;;;;;;11.55;2.53;;;4.30;99.90;;;;;;5073965;28;20480;-72
2022/01/17 04:38:37;;;;;;;13.32;3.35;;;4.20;99.90;;;;;;5074774;28;20024;-72
2022/01/17 04:41:11;;;;;;;17.30;4.00;;;4.10;99.90;;;;;;5073703;28;20020;-74
2022/01/17 04:46:04;;;;;;;12.68;2.97;;;4.00;99.90;;;;;;5074970;28;20023;-74
2022/01/17 04:48:30;;;;;;;6.82;2.25;;;3.90;99.90;;;;;;5074081;28;20028;-74
2022/01/17 04:50:56;;;;;;;20.55;2.70;;;3.90;99.90;;;;;;5074754;28;20025;-74
2022/01/17 04:53:22;;;;;;;21.27;3.50;;;3.90;99.90;;;;;;5074904;28;20056;-74
2022/01/17 04:55:48;;;;;;;13.02;4.68;;;3.90;99.90;;;;;;5074245;28;20020;-74
2022/01/17 04:58:14;;;;;;;9.73;2.80;;;3.90;99.90;;;;;;5075670;28;20037;-74
2022/01/17 05:00:46;;;;;;;13.80;2.92;;;4.00;99.90;;;;;;5073994;28;20028;-73
2022/01/17 05:03:25;;;;;;;12.75;2.97;;;4.00;99.90;;;;;;5074121;28;20024;-74
2022/01/17 05:05:52;;;;;;;13.45;3.38;;;4.00;99.90;;;;;;5073991;28;20049;-74
2022/01/17 05:08:18;;;;;;;13.00;4.25;;;4.10;99.90;;;;;;5073560;28;20337;-74
2022/01/17 05:10:52;;;;;;;16.65;4.22;;;4.10;99.90;;;;;;5074764;28;20017;-74
2022/01/17 05:13:26;;;;;;;13.82;4.10;;;4.20;99.90;;;;;;5073883;28;20086;-74
2022/01/17 05:16:05;;;;;;;19.63;5.88;;;4.20;99.90;;;;;;5073573;28;20031;-73
2022/01/17 05:20:56;;;;;;;18.85;4.50;;;4.30;99.90;;;;;;5074557;28;20111;-75
2022/01/17 05:23:22;;;;;;;20.00;5.32;;;4.20;99.90;;;;;;5073156;28;20114;-74
2022/01/17 05:25:48;;;;;;;23.20;6.05;;;4.20;99.90;;;;;;5073947;28;20055;-73
2022/01/17 05:28:13;;;;;;;19.58;7.07;;;4.30;99.90;;;;;;5073809;28;20035;-74
2022/01/17 05:30:40;;;;;;;16.58;5.88;;;4.40;99.90;;;;;;5073911;28;20048;-73
2022/01/17 05:33:05;;;;;;;15.38;5.00;;;4.40;99.90;;;;;;5073995;28;20027;-74
2022/01/17 05:35:31;;;;;;;22.33;7.03;;;4.40;99.90;;;;;;5073949;28;20032;-74
2022/01/17 05:37:59;;;;;;;9.05;5.55;;;4.40;99.90;;;;;;5072658;28;20029;-74
2022/01/17 05:40:25;;;;;;;14.80;5.85;;;4.20;99.90;;;;;;5072997;28;20029;-74
2022/01/17 05:42:51;;;;;;;18.73;6.95;;;4.20;99.90;;;;;;5072799;28;20035;-74
2022/01/17 05:45:20;;;;;;;19.50;6.60;;;4.20;99.90;;;;;;5073026;28;20025;-74
2022/01/17 05:47:46;;;;;;;16.35;7.65;;;4.20;99.90;;;;;;5073248;28;20502;-74
2022/01/17 05:50:12;;;;;;;24.88;8.50;;;4.30;99.90;;;;;;5072095;28;20031;-74
2022/01/17 05:52:38;;;;;;;19.05;8.43;;;4.30;99.90;;;;;;5073268;28;20025;-74
2022/01/17 05:55:06;;;;;;;21.25;8.43;;;4.50;99.90;;;;;;5073365;28;20020;-74
2022/01/17 05:57:32;;;;;;;19.88;7.75;;;4.50;99.90;;;;;;5077861;28;20106;-74
2022/01/17 06:00:00;;;;;;;21.75;8.25;;;4.40;99.90;;;;;;5073596;28;20016;-73
2022/01/17 06:02:28;;;;;;;28.00;9.25;;;4.60;99.90;;;;;;5073721;28;20029;-74
2022/01/17 06:04:54;;;;;;;35.63;15.20;;;4.60;99.90;;;;;;5072945;28;20450;-72
2022/01/17 06:07:22;;;;;;;50.63;18.70;;;4.70;99.90;;;;;;5077233;28;20028;-72
2022/01/17 06:09:47;;;;;;;52.63;19.40;;;4.80;99.90;;;;;;5075505;28;20031;-73
2022/01/17 06:12:13;;;;;;;43.25;16.80;;;4.90;99.90;;;;;;5079178;28;20033;-73
2022/01/17 06:14:39;;;;;;;38.65;14.93;;;5.00;99.90;;;;;;5073686;28;20016;-73
2022/01/17 06:17:05;;;;;;;29.73;13.85;;;5.10;99.90;;;;;;5072531;28;20036;-73
2022/01/17 06:19:43;;;;;;;29.23;11.57;;;5.10;99.90;;;;;;5072492;28;20502;-73
2022/01/17 06:22:10;;;;;;;31.25;11.50;;;5.20;99.90;;;;;;5072718;28;20024;-73
2022/01/17 06:24:35;;;;;;;31.98;13.82;;;5.20;99.90;;;;;;5073109;28;20074;-73
2022/01/17 06:27:02;;;;;;;31.77;13.82;;;5.10;99.90;;;;;;5072245;28;20553;-74
2022/01/17 06:29:28;;;;;;;28.55;13.85;;;5.00;99.90;;;;;;5076436;28;20024;-73
2022/01/17 06:31:53;;;;;;;26.23;14.07;;;5.00;99.90;;;;;;5079350;28;20521;-73
2022/01/17 06:34:20;;;;;;;24.20;13.45;;;5.00;99.90;;;;;;5071925;28;20029;-73
2022/01/17 06:36:45;;;;;;;35.17;16.13;;;4.90;99.90;;;;;;5090418;28;20085;-73
2022/01/17 06:39:11;;;;;;;42.55;16.00;;;4.90;99.90;;;;;;5079816;28;20473;-74
2022/01/17 06:41:38;;;;;;;33.20;15.52;;;4.90;99.90;;;;;;5071952;28;20059;-73
2022/01/17 06:44:04;;;;;;;36.85;14.73;;;4.90;99.90;;;;;;5072083;28;20071;-73
2022/01/17 06:46:30;;;;;;;41.75;18.23;;;5.10;99.90;;;;;;5071542;28;20028;-74
2022/01/17 06:48:58;;;;;;;39.75;19.45;;;5.20;99.90;;;;;;5072485;28;20472;-73
2022/01/17 06:51:27;;;;;;;36.67;17.13;;;5.20;99.90;;;;;;5078235;28;20082;-74
2022/01/17 06:53:52;;;;;;;44.47;17.40;;;5.10;99.90;;;;;;5071645;28;20021;-73
2022/01/17 06:56:19;;;;;;;41.20;17.55;;;5.10;99.90;;;;;;5074503;28;20393;-73
2022/01/17 06:58:45;;;;;;;37.58;16.45;;;5.10;99.90;;;;;;5080612;28;20033;-73
2022/01/17 07:01:11;;;;;;;35.60;18.42;;;5.00;99.90;;;;;;5072795;28;20066;-73
2022/01/17 07:03:37;;;;;;;41.22;17.65;;;5.20;99.90;;;;;;5078758;28;20112;-73
2022/01/17 07:06:03;;;;;;;31.75;15.35;;;5.20;99.90;;;;;;5074158;28;20053;-74
2022/01/17 07:08:29;;;;;;;40.75;15.75;;;5.30;99.90;;;;;;5074325;28;20013;-73
2022/01/17 07:10:54;;;;;;;38.38;17.27;;;5.40;99.90;;;;;;5074451;28;20032;-72
2022/01/17 07:13:20;;;;;;;33.03;16.08;;;5.40;99.90;;;;;;5074325;28;20055;-72
2022/01/17 07:15:45;;;;;;;39.90;17.45;;;5.20;99.90;;;;;;5083436;28;20020;-72
2022/01/17 07:18:12;;;;;;;39.53;15.43;;;5.30;99.90;;;;;;5085742;28;20020;-73
2022/01/17 07:20:38;;;;;;;33.67;16.13;;;5.30;99.90;;;;;;5090364;28;20027;-71
2022/01/17 07:23:04;;;;;;;31.02;15.15;;;5.20;99.90;;;;;;5085158;28;20028;-71
2022/01/17 07:25:29;;;;;;;33.58;15.77;;;5.10;99.90;;;;;;5092033;28;20026;-73
2022/01/17 07:27:57;;;;;;;40.03;14.98;;;5.10;99.90;;;;;;5092508;28;20103;-73
2022/01/17 07:30:23;;;;;;;39.17;14.55;;;5.10;99.90;;;;;;5090296;28;20031;-73
2022/01/17 07:32:49;;;;;;;41.95;13.13;;;5.00;99.90;;;;;;5089313;28;20050;-73
2022/01/17 07:35:15;;;;;;;41.47;13.50;;;5.00;99.90;;;;;;5084799;28;20043;-74
2022/01/17 07:37:41;;;;;;;35.67;14.13;;;5.00;99.90;;;;;;5083871;28;20027;-74
2022/01/17 07:40:08;;;;;;;37.92;13.60;;;5.00;99.90;;;;;;5081776;28;20020;-75
2022/01/17 07:42:35;;;;;;;45.83;13.27;;;5.10;99.90;;;;;;5085344;28;20314;-75
2022/01/17 07:45:10;;;;;;;28.08;10.75;;;5.30;99.90;;;;;;5076408;28;20120;-74
2022/01/17 07:47:57;;;;;;;35.80;11.23;;;5.30;99.90;;;;;;5071048;28;20117;-74
2022/01/17 07:50:24;;;;;;;31.65;11.43;;;5.30;99.90;;;;;;5089990;28;20038;-75
2022/01/17 07:52:55;;;;;;;35.08;11.23;;;5.40;99.90;;;;;;5091452;28;20031;-75
2022/01/17 07:55:21;;;;;;;24.88;9.32;;;5.40;99.90;;;;;;5092763;28;20063;-76
2022/01/17 07:57:47;;;;;;;36.72;10.35;;;5.40;99.90;;;;;;5086409;28;20036;-75
2022/01/17 08:00:22;;;;;;;23.83;9.65;;;5.40;99.90;;;;;;5070804;28;20050;-75
2022/01/17 08:02:49;;;;;;;44.15;13.38;;;5.40;99.90;;;;;;5089424;28;20088;-75
2022/01/17 08:05:17;;;;;;;27.00;9.38;;;5.50;99.90;;;;;;5092229;28;20051;-76
2022/01/17 08:07:44;;;;;;;22.48;8.88;;;5.50;99.90;;;;;;5100326;28;20071;-75
2022/01/17 08:10:14;;;;;;;27.95;8.35;;;5.50;99.90;;;;;;5096853;28;20096;-77
2022/01/17 08:12:42;;;;;;;20.60;7.00;;;5.50;99.90;;;;;;5099231;28;20020;-76
2022/01/17 08:15:08;;;;;;;20.83;6.95;;;5.60;99.90;;;;;;5091949;28;20024;-77
2022/01/17 08:17:34;;;;;;;27.38;7.80;;;5.60;99.90;;;;;;5091729;28;20534;-76
2022/01/17 08:20:00;;;;;;;30.02;6.60;;;5.80;99.90;;;;;;5089105;28;20020;-75
2022/01/17 08:22:25;;;;;;;23.85;5.97;;;5.80;99.90;;;;;;5094082;28;20028;-76
2022/01/17 08:24:51;;;;;;;21.75;5.50;;;5.80;99.90;;;;;;5095213;28;20055;-76
2022/01/17 08:27:17;;;;;;;17.23;5.13;;;5.90;99.90;;;;;;5095571;28;20100;-74
2022/01/17 08:29:42;;;;;;;34.22;6.68;;;6.00;99.90;;;;;;5095887;28;20379;-72
2022/01/17 08:32:09;;;;;;;18.27;5.60;;;6.10;99.90;;;;;;5095175;28;20020;-75
2022/01/17 08:34:34;;;;;;;17.00;5.13;;;6.10;99.90;;;;;;5096204;28;20019;-75
2022/01/17 08:37:01;;;;;;;25.05;5.32;;;6.10;99.90;;;;;;5095686;28;20032;-73
2022/01/17 08:39:26;;;;;;;29.25;4.72;;;6.10;99.90;;;;;;5094406;28;20540;-75
2022/01/17 08:41:53;;;;;;;14.60;5.05;;;6.10;99.90;;;;;;5095367;28;20024;-75
2022/01/17 08:44:20;;;;;;;22.33;5.35;;;6.10;99.90;;;;;;5095426;28;20036;-75
2022/01/17 08:46:46;;;;;;;22.52;4.53;;;6.20;99.90;;;;;;5094954;28;20024;-74
2022/01/17 08:49:13;;;;;;;16.90;4.70;;;6.20;99.90;;;;;;5095163;28;20103;-76
2022/01/17 08:51:38;;;;;;;20.65;4.57;;;6.20;99.90;;;;;;5095486;28;20028;-78
2022/01/17 08:54:06;;;;;;;21.90;5.18;;;6.20;99.90;;;;;;5094694;28;20483;-76
2022/01/17 08:56:32;;;;;;;22.83;5.10;;;6.20;99.90;;;;;;5095287;28;20547;-75
2022/01/17 08:58:59;;;;;;;15.50;4.57;;;6.20;99.90;;;;;;5095317;28;20024;-72
2022/01/17 09:01:25;;;;;;;30.88;4.72;;;6.20;99.90;;;;;;5094405;28;20032;-73
2022/01/17 09:03:51;;;;;;;23.00;4.50;;;6.30;99.90;;;;;;5094732;28;20161;-73
2022/01/17 09:06:17;;;;;;;31.92;4.85;;;6.30;99.90;;;;;;5087796;28;20051;-74
2022/01/17 09:08:43;;;;;;;28.33;5.15;;;6.40;99.90;;;;;;5078222;28;20016;-75
2022/01/17 09:11:11;;;;;;;29.20;5.65;;;6.50;99.90;;;;;;5074265;28;20094;-74
2022/01/17 09:13:37;;;;;;;20.48;4.32;;;6.50;99.90;;;;;;5091488;28;20024;-74
2022/01/17 09:16:03;;;;;;;16.35;4.00;;;6.50;99.90;;;;;;5090631;28;20016;-75
2022/01/17 09:18:31;;;;;;;20.50;4.63;;;6.50;99.90;;;;;;5093570;28;20039;-74
2022/01/17 09:20:57;;;;;;;23.67;4.88;;;6.60;99.90;;;;;;5093617;28;20392;-73
2022/01/17 09:23:22;;;;;;;22.75;4.43;;;6.60;99.90;;;;;;5094252;28;20024;-75
2022/01/17 09:25:48;;;;;;;16.67;3.97;;;6.70;99.90;;;;;;5094652;28;20020;-75
2022/01/17 09:28:14;;;;;;;25.08;4.88;;;6.70;99.90;;;;;;5093932;28;20428;-74
2022/01/17 09:30:39;;;;;;;23.17;5.50;;;6.80;99.90;;;;;;5093122;28;20107;-75
2022/01/17 09:33:06;;;;;;;23.33;5.55;;;6.90;99.90;;;;;;5094001;28;20066;-75
2022/01/17 09:35:33;;;;;;;21.80;4.30;;;6.90;99.90;;;;;;5093550;28;20051;-74
2022/01/17 09:37:59;;;;;;;19.52;3.35;;;6.90;99.90;;;;;;5093729;28;20085;-74
2022/01/17 09:40:25;;;;;;;20.02;4.18;;;7.00;99.90;;;;;;5094104;28;20024;-75
2022/01/17 09:42:51;;;;;;;17.85;3.92;;;7.00;99.90;;;;;;5072770;28;20115;-74
2022/01/17 09:45:19;;;;;;;19.40;3.75;;;7.10;99.90;;;;;;5072422;28;20051;-75
2022/01/17 09:47:46;;;;;;;24.98;3.63;;;7.10;99.90;;;;;;5073665;28;20393;-75
2022/01/17 09:50:17;;;;;;;28.27;5.28;;;7.20;99.90;;;;;;5071950;28;20025;-76
2022/01/17 09:52:49;;;;;;;27.83;3.97;;;7.20;99.90;;;;;;5073956;28;20498;-74
2022/01/17 09:55:23;;;;;;;15.75;3.70;;;7.30;99.90;;;;;;5073462;28;20017;-76
2022/01/17 09:58:15;;;;;;;26.83;4.68;;;7.30;99.90;;;;;;5076252;28;20040;-76
2022/01/17 10:00:43;;;;;;;44.15;4.45;;;7.30;99.90;;;;;;5089480;28;20066;-75
2022/01/17 10:03:16;;;;;;;23.00;3.90;;;7.40;99.90;;;;;;5091071;28;20046;-76
2022/01/17 10:05:42;;;;;;;22.30;4.60;;;7.50;99.90;;;;;;5095003;28;20040;-75
2022/01/17 10:08:18;;;;;;;25.55;4.88;;;7.50;99.90;;;;;;5095050;28;20031;-75
2022/01/17 10:10:57;;;;;;;12.18;2.85;;;7.60;99.90;;;;;;5093198;28;20361;-76
2022/01/17 10:13:28;;;;;;;30.02;3.70;;;7.60;99.90;;;;;;5094349;28;20035;-75
2022/01/17 10:16:09;;;;;;;23.45;3.90;;;7.70;99.90;;;;;;5093267;28;20488;-75
2022/01/17 10:18:46;;;;;;;23.60;4.38;;;7.70;99.90;;;;;;5092992;28;20036;-75
2022/01/17 10:21:34;;;;;;;37.45;6.30;;;7.80;99.90;;;;;;5082628;28;21338;-75
2022/01/17 10:24:25;;;;;;;20.17;5.20;;;7.80;99.90;;;;;;5073420;28;20041;-74
2022/01/17 10:35:22;;;;;;;21.33;3.88;;;8.00;99.90;;;;;;5073028;28;20541;-74
2022/01/17 10:38:05;;;;;;;25.55;4.28;;;8.00;99.90;;;;;;5073213;28;20403;-75
2022/01/17 10:40:37;;;;;;;14.43;2.83;;;8.10;99.90;;;;;;5072621;28;20032;-75
2022/01/17 10:43:04;;;;;;;24.00;3.58;;;8.10;99.90;;;;;;5072124;28;20037;-75
2022/01/17 10:45:41;;;;;;;23.25;3.65;;;8.10;99.90;;;;;;5085794;28;20066;-74
2022/01/17 10:48:07;;;;;;;20.80;2.92;;;8.20;99.90;;;;;;5083632;28;20024;-73
2022/01/17 10:50:39;;;;;;;17.13;3.58;;;8.20;99.90;;;;;;5074358;28;20025;-74
2022/01/17 10:53:09;;;;;;;28.60;4.63;;;8.20;99.90;;;;;;5071179;28;20041;-75
2022/01/17 10:55:38;;;;;;;18.38;3.13;;;8.30;99.90;;;;;;5071590;28;20047;-76
2022/01/17 10:58:12;;;;;;;16.50;3.67;;;8.30;99.90;;;;;;5072174;28;20106;-75
2022/01/17 11:00:44;;;;;;;19.63;3.28;;;8.40;99.90;;;;;;5070940;28;20028;-75
2022/01/17 11:03:15;;;;;;;21.85;4.32;;;8.30;99.90;;;;;;5071596;28;20074;-75
2022/01/17 11:05:45;;;;;;;;;;;8.40;99.90;;;;;;5069771;28;20080;-74
2022/01/17 11:08:12;;;;;;;23.70;3.63;;;8.40;99.90;;;;;;5069992;28;19916;-74
2022/01/17 11:10:46;;;;;;;21.85;5.50;;;8.40;99.90;;;;;;5070878;28;20784;-76
2022/01/17 11:13:14;;;;;;;35.72;5.13;;;8.50;99.90;;;;;;5070567;28;20560;-74
2022/01/17 11:15:43;;;;;;;23.63;3.42;;;8.50;99.90;;;;;;5070431;28;20029;-73
2022/01/17 11:18:12;;;;;;;19.98;3.25;;;9.20;99.90;;;;;;5073478;28;20068;-74
2022/01/17 11:20:37;;;;;;;24.17;4.22;;;8.50;99.90;;;;;;5087279;28;20019;-74
2022/01/17 11:23:03;;;;;;;30.35;4.03;;;8.60;99.90;;;;;;5089314;28;20024;-76
2022/01/17 11:25:35;;;;;;;24.35;3.38;;;8.60;99.90;;;;;;5090480;28;20020;-76
2022/01/17 11:28:03;;;;;;;25.33;2.95;;;8.60;99.90;;;;;;5089174;28;20047;-75
2022/01/17 11:30:30;;;;;;;22.23;2.63;;;8.60;99.90;;;;;;5090108;28;20088;-75
2022/01/17 11:32:56;;;;;;;32.13;4.10;;;8.60;99.90;;;;;;5090080;28;20126;-75
2022/01/17 11:35:24;;;;;;;21.77;3.42;;;8.60;99.90;;;;;;5080385;28;20753;-75
2022/01/17 11:37:54;;;;;;;22.48;3.92;;;8.60;99.90;;;;;;5080822;28;20064;-75
2022/01/17 11:40:31;;;;;;;19.77;3.08;;;8.60;99.90;;;;;;5087448;28;20095;-75
2022/01/17 11:42:59;;;;;;;22.35;2.63;;;8.60;99.90;;;;;;5088718;28;20017;-75
2022/01/17 11:45:24;;;;;;;12.48;2.65;;;8.60;99.90;;;;;;5089444;28;20036;-75
2022/01/17 11:47:55;;;;;;;15.00;2.88;;;8.60;99.90;;;;;;5089477;28;20491;-75
2022/01/17 11:50:37;;;;;;;23.23;5.63;;;8.60;99.90;;;;;;5088930;28;20039;-75
2022/01/17 11:53:14;;;;;;;25.13;3.67;;;8.60;99.90;;;;;;5091642;28;20379;-75
2022/01/17 11:55:40;;;;;;;16.92;3.00;;;8.60;99.90;;;;;;5093200;28;20054;-75
2022/01/17 11:58:29;;;;;;;23.27;3.45;;;8.60;99.90;;;;;;5094625;28;20479;-75
2022/01/17 12:00:58;;;;;;;19.10;3.40;;;8.60;99.90;;;;;;5094137;28;20085;-76
2022/01/17 12:03:37;;;;;;;20.02;3.10;;;8.70;99.90;;;;;;5092594;28;20502;-75
2022/01/17 12:06:16;;;;;;;13.85;2.92;;;8.70;99.90;;;;;;5090883;28;20044;-76
2022/01/17 12:08:42;;;;;;;23.10;3.63;;;8.70;99.90;;;;;;5094494;28;20031;-75
2022/01/17 12:11:23;;;;;;;34.22;4.25;;;8.70;99.90;;;;;;5094782;28;20092;-76
2022/01/17 12:13:48;;;;;;;15.23;2.80;;;8.70;99.90;;;;;;5095274;28;20024;-76
2022/01/17 12:16:30;;;;;;;22.65;3.50;;;8.70;99.90;;;;;;5090307;28;20548;-74
2022/01/17 12:19:05;;;;;;;20.10;3.03;;;8.70;99.90;;;;;;5092540;28;20046;-74
2022/01/17 12:21:36;;;;;;;24.90;3.10;;;8.70;99.90;;;;;;5089887;28;20035;-75
2022/01/17 12:24:22;;;;;;;24.55;2.67;;;8.80;99.90;;;;;;5092454;28;20028;-76
2022/01/17 12:27:03;;;;;;;28.92;3.30;;;8.70;99.90;;;;;;5090446;28;20460;-75
2022/01/17 12:29:38;;;;;;;24.63;2.88;;;8.80;99.90;;;;;;5093301;28;20058;-75
2022/01/17 12:32:05;;;;;;;21.95;3.05;;;8.80;99.90;;;;;;5091920;28;20107;-75
2022/01/17 12:34:40;;;;;;;22.40;2.88;;;8.80;99.90;;;;;;5092139;28;20049;-75
2022/01/17 12:37:31;;;;;;;16.88;2.58;;;8.70;99.90;;;;;;5090477;28;20044;-74
2022/01/17 12:40:19;;;;;;;22.67;2.92;;;8.80;99.90;;;;;;5083480;28;20099;-75
2022/01/17 12:42:56;;;;;;;30.48;4.05;;;8.80;99.90;;;;;;5078208;28;20043;-75
2022/01/17 12:45:42;;;;;;;19.63;2.80;;;8.80;99.90;;;;;;5083488;28;20074;-75
2022/01/17 12:48:11;;;;;;;19.60;2.92;;;8.80;99.90;;;;;;5083111;28;20062;-75
2022/01/17 12:50:39;;;;;;;24.88;5.93;;;8.90;99.90;;;;;;5080900;28;20405;-76
2022/01/17 12:53:07;;;;;;;26.90;3.05;;;8.90;99.90;;;;;;5081837;28;20221;-76
2022/01/17 12:55:39;;;;;;;24.75;3.08;;;9.00;99.90;;;;;;5080245;28;20021;-75
2022/01/17 12:58:11;;;;;;;23.10;3.95;;;9.00;99.90;;;;;;5084429;28;20067;-76
2022/01/17 13:00:41;;;;;;;20.70;3.72;;;9.00;99.90;;;;;;5081523;28;20050;-75
2022/01/17 13:03:07;;;;;;;;;;;9.00;99.90;;;;;;5079978;28;20032;-76
2022/01/17 13:05:35;;;;;;;26.17;3.55;;;9.00;99.90;;;;;;5085176;28;19916;-76
2022/01/17 13:08:04;;;;;;;40.90;5.13;;;9.00;99.90;;;;;;5089781;28;20024;-75
2022/01/17 13:10:31;;;;;;;20.92;3.25;;;8.90;99.90;;;;;;5092054;28;20543;-75
2022/01/17 13:12:59;;;;;;;29.95;3.45;;;8.80;99.90;;;;;;5091717;28;20021;-76
2022/01/17 13:15:25;;;;;;;19.38;2.90;;;8.90;99.90;;;;;;5092537;28;20034;-76
2022/01/17 13:17:51;;;;;;;20.85;3.50;;;8.90;99.90;;;;;;5091924;28;20111;-76
2022/01/17 13:20:19;;;;;;;22.13;4.22;;;9.00;99.90;;;;;;5089942;28;20024;-75
2022/01/17 13:22:59;;;;;;;32.03;3.42;;;9.00;99.90;;;;;;5077628;28;20127;-76
2022/01/17 13:25:26;;;;;;;30.40;3.80;;;9.10;99.90;;;;;;5088969;28;20631;-76